Fernwood, Idaho
Current Conditions -  °F | °C
As of 10:53 PM on Saturday 20 Dec 2014 (Local Time) from KMLP Reporting Station
Moderate Snow Moderate Snow  
Wind Chill: 23°   Ceiling: 200
Heat Index: 30°   Visibility: 0.5mi
Dew Point: 27°   Wind: 7mph
Humidity: 88%   Direction: NA
Pressure: 29.51"   Gusts: 22mph
Location:  47.11°N, 116.4°W
Report Text: KMLP 210653Z AUTO VRB06G19KT 1/2SM SN FZFG VV002 M01/M03 A2951 RMK AO2 SLP011 P0012 T10111028
Loading
Personal Weather Stations






























Interactive Weather Map New forecast layout! Learn more

10-Day Weather Forecast

Advertisements
Track Severe Weather on mobile